Home > Products > Valid Products > TAF

000
FTUS44 KMEG 240300 AAA
TAFMEM
TAF AMD
KMEM 240301Z 2403/2424 07006KT P6SM FEW250
     FM240900 14008KT P6SM SKC
     FM241300 16010KT P6SM BKN250
     FM241600 19012G20KT P6SM SCT050 SCT150
     FM242100 19015G25KT P6SM BKN040CB BKN150=



000
FTUS44 KMEG 232300
TAFMEM
TAF
KMEM 232340Z 2400/2424 09004KT P6SM FEW250
     FM240600 14006KT P6SM SKC
     FM241300 16010KT P6SM BKN250
     FM241600 19012G20KT P6SM SCT050 SCT150
     FM242100 19015G25KT P6SM BKN040CB BKN150=



000
FTUS44 KMEG 232300
TAFJBR
TAF
KJBR 232340Z 2400/2424 11007KT P6SM SKC
     FM240100 11005KT P6SM SKC
     FM241400 18010KT P6SM SCT050 SCT180
     FM242000 19017G27KT P6SM VCTS BKN040CB BKN150=



000
FTUS44 KMEG 232300
TAFMKL
TAF
KMKL 232340Z 2400/2424 11003KT P6SM SKC
     FM241400 18007KT P6SM SCT050 SCT250
     FM241700 17010KT P6SM SCT050 SCT150
     FM241900 19012G20KT P6SM BKN040 BKN150
     FM242300 19012G20KT P6SM VCTS BKN040CB BKN150=



000
FTUS44 KMEG 232300
TAFTUP
TAF
KTUP 232340Z 2400/2424 00000KT P6SM SKC
     FM241500 19008KT P6SM SCT250
     FM241800 21012G20KT P6SM SCT050 SCT200=



000
FTUS44 KMEG 232000 AAA
TAFMEM
TAF AMD
KMEM 232058Z 2321/2418 11005KT P6SM FEW250
     FM240400 13005KT P6SM SKC
     FM241300 16010KT P6SM BKN250=



000
FTUS44 KMEG 231700
TAFMEM
TAF
KMEM 231727Z 2318/2418 11005KT P6SM SKC
     FM240400 13005KT P6SM SKC
     FM241300 16010KT P6SM BKN250=



000
FTUS44 KMEG 231700
TAFMKL
TAF
KMKL 231727Z 2318/2418 04010KT P6SM SKC
     FM240100 11003KT P6SM SKC
     FM241400 17010KT P6SM BKN250=



000
FTUS44 KMEG 231700
TAFTUP
TAF
KTUP 231727Z 2318/2418 09005KT P6SM SKC
     FM240000 08003KT P6SM SKC
     FM241500 19010KT P6SM SKC=



000
FTUS44 KMEG 231700
TAFJBR
TAF
KJBR 231727Z 2318/2418 07005KT P6SM SKC
     FM240100 11004KT P6SM SKC
     FM241400 17010KT P6SM BKN250=



000
FTUS44 KMEG 231400 AAA
TAFMEM
TAF AMD
KMEM 231458Z 2315/2412 08007KT P6SM SKC
     FM240100 14006KT P6SM SKC=



000
FTUS44 KMEG 231100
TAFMKL
TAF
KMKL 231120Z 2312/2412 06007KT P6SM SKC
     FM240100 13002KT P6SM SKC=



000
FTUS44 KMEG 231100
TAFTUP
TAF
KTUP 231120Z 2312/2412 03005KT P6SM SKC
     FM231400 07007KT P6SM SKC
     FM240000 10003KT P6SM SKC=



000
FTUS44 KMEG 231100
TAFJBR
TAF
KJBR 231120Z 2312/2412 06005KT P6SM SKC
     FM231500 10008KT P6SM SKC
     FM240100 12004KT P6SM SKC=



000
FTUS44 KMEG 231100
TAFMEM
TAF
KMEM 231120Z 2312/2412 08008KT P6SM SKC
     FM240100 14006KT P6SM SKC=



000
FTUS44 KMEG 230800 AAA
TAFMEM
TAF AMD
KMEM 230857Z 2309/2406 06005KT P6SM SCT250
     FM231400 09007KT P6SM SKC
     FM240100 13005KT P6SM SKC=



000
FTUS44 KMEG 230500
TAFMKL
TAF
KMKL 230538Z 2306/2406 06007KT P6SM SKC
     FM240100 VRB03KT P6SM SKC=



000
FTUS44 KMEG 230500
TAFTUP
TAF
KTUP 230538Z 2306/2406 01005KT P6SM SKC
     FM231400 06007KT P6SM SKC
     FM240000 10004KT P6SM SKC=



000
FTUS44 KMEG 230500
TAFJBR
TAF
KJBR 230538Z 2306/2406 06004KT P6SM SKC
     FM231500 11008KT P6SM SKC
     FM240100 12004KT P6SM SKC=



000
FTUS44 KMEG 230500
TAFMEM
TAF
KMEM 230538Z 2306/2406 06005KT P6SM SKC
     FM231400 09007KT P6SM SKC
     FM240100 13005KT P6SM SKC=



000
FTUS44 KMEG 230200 AAA
TAFMEM
TAF AMD
KMEM 230255Z 2303/2324 04005KT P6SM FEW050
     FM231400 09007KT P6SM SKC=



000
FTUS44 KMEG 222300
TAFTUP
TAF
KTUP 222324Z 2300/2324 36010KT P6SM FEW045
     FM230100 01005KT P6SM SKC
     FM231400 06007KT P6SM SKC=



000
FTUS44 KMEG 222300
TAFJBR
TAF
KJBR 222324Z 2300/2324 02007KT P6SM SKC
     FM230100 03005KT P6SM SKC
     FM231500 11008KT P6SM SKC=



000
FTUS44 KMEG 222300
TAFMEM
TAF
KMEM 222324Z 2300/2324 35010KT P6SM FEW050
     FM230200 02005KT P6SM SKC
     FM231400 09007KT P6SM SKC=



000
FTUS44 KMEG 222300
TAFMKL
TAF
KMKL 222324Z 2300/2324 34010KT P6SM FEW035
     FM230200 VRB03KT P6SM SKC
     FM231400 06007KT P6SM SKC=



000
FTUS44 KMEG 222100 AAA
TAFMEM
TAF AMD
KMEM 222101Z 2221/2318 35010KT P6SM SCT050
     FM230200 02005KT P6SM SKC
     FM231400 08008KT P6SM SKC=



000
FTUS44 KMEG 221700
TAFTUP
TAF
KTUP 221730Z 2218/2318 26005KT P6SM SCT015 OVC035
     FM222100 01010KT P6SM FEW035
     FM230100 01005KT P6SM SKC
     FM231400 06010KT P6SM SKC=



000
FTUS44 KMEG 221700
TAFMKL
TAF
KMKL 221730Z 2218/2318 34010KT P6SM SCT015 OVC035
     FM222100 35010KT P6SM FEW035
     FM230200 35005KT P6SM SKC
     FM231400 06005KT P6SM SKC=



000
FTUS44 KMEG 221700
TAFJBR
TAF
KJBR 221730Z 2218/2318 34010KT P6SM SKC
     FM230100 01005KT P6SM SKC
     FM231500 09010KT P6SM SKC=



000
FTUS44 KMEG 221700
TAFMEM
TAF
KMEM 221730Z 2218/2318 36010KT P6SM OVC020
     FM222000 35010KT P6SM FEW015
     FM230200 02005KT P6SM SKC
     FM231400 08005KT P6SM SKC=



000
FTUS44 KMEG 221500 AAA
TAFTUP
TAF AMD
KTUP 221502Z 2215/2312 26005KT P6SM OVC070
      TEMPO 2215/2216 4SM -RA BR OVC035
     FM221600 01009KT P6SM VCTS SCT020CB OVC035
     FM222100 02010KT P6SM FEW040
     FM230100 02005KT P6SM SKC=



000
FTUS44 KMEG 221500 AAB
TAFMKL
TAF AMD
KMKL 221501Z 2215/2312 27005KT 4SM BR BKN015 OVC035
     FM221800 35010KT P6SM BKN040
     FM222100 35012G18KT P6SM FEW040
     FM230100 35006KT P6SM SKC
     FM230400 02003KT P6SM SKC=



000
FTUS44 KMEG 221400 AAC
TAFMEM
TAF AMD
KMEM 221459Z 2215/2312 36010KT P6SM OVC010
     FM221800 36012G18KT P6SM BKN040
     FM230100 02008KT P6SM SKC
     FM230400 04005KT P6SM SKC=



000
FTUS44 KMEG 221400 AAB
TAFMEM
TAF AMD
KMEM 221405Z 2214/2312 32010KT P6SM SCT015 OVC040
      TEMPO 2214/2215 BKN008 OVC040
     FM221500 36010KT P6SM BKN040
     FM221800 36012G18KT P6SM FEW040
     FM230100 02008KT P6SM SKC
     FM230400 04005KT P6SM SKC=



000
FTUS44 KMEG 221200 AAA
TAFMEM
TAF AMD
KMEM 221250Z 2213/2312 32006KT P6SM SCT015 OVC040
      TEMPO 2213/2215 5SM BR BKN015 OVC040
     FM221500 36010KT P6SM BKN040
     FM221800 36012G18KT P6SM FEW040
     FM230100 02008KT P6SM SKC
     FM230400 04005KT P6SM SKC=



000
FTUS44 KMEG 221200 AAA
TAFMKL
TAF AMD
KMKL 221249Z 2213/2312 27005KT 4SM BR SCT004 BKN028 OVC060
      TEMPO 2213/2216 2SM BR BKN004 OVC015
     FM221600 35010KT P6SM BKN040
     FM221900 35012G18KT P6SM FEW040
     FM230100 35006KT P6SM SKC
     FM230400 02003KT P6SM SKC=



000
FTUS44 KMEG 221100
TAFJBR
TAF
KJBR 221120Z 2212/2312 33008KT P6SM BKN040
     FM221400 02011KT P6SM FEW040
     FM221800 02012G18KT P6SM SKC
     FM230000 03005KT P6SM SKC=



000
FTUS44 KMEG 221100
TAFMKL
TAF
KMKL 221120Z 2212/2312 27005KT 6SM BR VCSH SCT015 OVC040
      TEMPO 2212/2216 3SM BR BKN015 OVC040
     FM221600 35010KT P6SM BKN040
     FM221900 35012G18KT P6SM FEW040
     FM230100 35006KT P6SM SKC
     FM230400 02003KT P6SM SKC=



000
FTUS44 KMEG 221100
TAFTUP
TAF
KTUP 221120Z 2212/2312 VRB03KT 6SM BR SCT015 OVC040
      TEMPO 2212/2216 3SM -SHRA BR BKN015 OVC030
     FM221600 01009KT P6SM VCTS SCT020CB OVC035
     FM222100 02010KT P6SM FEW040
     FM230100 02005KT P6SM SKC=



000
FTUS44 KMEG 221100
TAFMEM
TAF
KMEM 221120Z 2212/2312 32004KT P6SM VCSH SCT015 OVC040
      TEMPO 2212/2215 5SM BR BKN015 OVC040
     FM221500 36010KT P6SM BKN040
     FM221800 36012G18KT P6SM FEW040
     FM230100 02008KT P6SM SKC
     FM230400 04005KT P6SM SKC=



000
FTUS44 KMEG 220600 AAA
TAFMEM
TAF AMD
KMEM 220613Z 2206/2306 29005KT 5SM -RA BR SCT007 OVC040
      TEMPO 2206/2210 2SM -RA BR BKN007 OVC040
     FM221000 32004KT 4SM BR BKN007 OVC020
     FM221200 34004KT 5SM BR FEW010 OVC030
     FM221600 36015KT P6SM FEW020 BKN030
     FM221900 01015G20KT P6SM FEW040
     FM230100 02008KT P6SM SKC=



000
FTUS44 KMEG 220500
TAFMKL
TAF
KMKL 220529Z 2206/2306 26005KT P6SM VCSH BKN060 OVC100
      TEMPO 2206/2210 5SM -SHRA BR SCT010 BKN020
     FM221000 30004KT 5SM BR VCSH BKN020 OVC040
     FM221400 35011KT P6SM VCSH BKN020
     FM221800 35012KT P6SM SCT020 BKN040
     FM230200 36005KT P6SM SKC=



000
FTUS44 KMEG 220500
TAFTUP
TAF
KTUP 220529Z 2206/2306 24004KT P6SM VCSH OVC090
     FM220900 29004KT P6SM VCSH OVC040
      TEMPO 2210/2214 4SM -RA BR BKN010 OVC035
     FM221400 01006KT P6SM VCSH BKN030
     FM222000 03008KT P6SM BKN040
     FM230300 02006KT P6SM SKC=



000
FTUS44 KMEG 220500
TAFMEM
TAF
KMEM 220529Z 2206/2306 31004KT P6SM VCSH SCT050 OVC080
      TEMPO 2210/2212 5SM BR BKN010 OVC020
     FM221200 34004KT 5SM BR FEW010 OVC030
     FM221600 36015KT P6SM FEW020 BKN030
     FM221900 01015G20KT P6SM FEW040
     FM230100 02008KT P6SM SKC=



000
FTUS44 KMEG 220500
TAFJBR
TAF
KJBR 220529Z 2206/2306 27006KT P6SM VCSH SCT050 OVC080
     FM221000 33008KT P6SM OVC050
      TEMPO 2210/2212 4SM BR BKN010
     FM221200 34008KT 6SM BR OVC020
     FM221400 01011KT P6SM FEW020 SCT100
     FM230100 02005KT P6SM SKC=



000
FTUS44 KMEG 220300 AAB
TAFMEM
TAF AMD
KMEM 220305Z 2203/2224 31005KT P6SM VCSH SCT050 OVC080
     FM220400 29005KT P6SM VCSH SCT012 OVC040
      TEMPO 2210/2212 5SM BR BKN012 OVC020
     FM221200 34004KT 6SM BR BKN010 OVC030
     FM221600 36015KT P6SM FEW010 BKN025
     FM221900 01015G20KT P6SM FEW040=



000
FTUS44 KMEG 220100 AAA
TAFMEM
TAF AMD
KMEM 220130Z 2202/2224 22005KT P6SM -RA VCSH SCT050 OVC080
     FM220400 26005KT P6SM VCSH SCT012 OVC040
      TEMPO 2208/2212 5SM -SHRA BR SCT012 OVC020
     FM221200 34004KT 6SM BR BKN010 OVC030
     FM221600 36015KT P6SM FEW010 BKN040
     FM221900 01015G20KT P6SM BKN040=



000
FTUS44 KMEG 212300 RRA
TAFMEM
TAF
KMEM 212344Z 2200/2224 24007KT P6SM VCSH BKN090 OVC100
     FM220100 27005KT P6SM VCTS SCT050CB OVC070
     FM220400 26005KT P6SM -RA VCSH SCT012 OVC040
      TEMPO 2208/2212 5SM -SHRA BR SCT012 OVC020
     FM221200 34004KT 6SM BR BKN010 OVC030
     FM221600 36015KT P6SM FEW010 BKN040
     FM221900 01015G20KT P6SM BKN040=



000
FTUS44 KMEG 212300 RRA
TAFTUP
TAF
KTUP 212344Z 2200/2224 21009KT P6SM FEW060
     FM220200 23005KT P6SM VCSH BKN050 OVC070
     FM220900 29004KT 5SM -SHRA BKN010 OVC040
      TEMPO 2210/2214 4SM -RA BR BKN009
     FM221400 01006KT P6SM VCSH BKN015
     FM222000 03008KT P6SM BKN035=



000
FTUS44 KMEG 212300 RRA
TAFMKL
TAF
KMKL 212344Z 2200/2224 24010KT P6SM VCSH BKN100
     FM220300 26005KT P6SM VCSH BKN050 OVC070
      TEMPO 2206/2210 5SM -SHRA BR SCT012 BKN020
     FM221000 28004KT 5SM BR VCSH BKN020 OVC040
     FM221400 35011KT P6SM VCSH BKN020
     FM221800 35012KT P6SM SCT020 BKN040=



000
FTUS44 KMEG 212300 RRA
TAFJBR
TAF
KJBR 212344Z 2200/2224 23008KT P6SM -SHRA VCTS BKN050CB OVC090
     FM220500 26006KT P6SM VCSH SCT012 OVC040
      TEMPO 2208/2212 4SM -RA BR BKN010
     FM221200 34008KT P6SM OVC020
     FM221400 02011KT P6SM FEW020 SCT100=



000
FTUS44 KMEG 212000 AAA
TAFMEM
TAF AMD
KMEM 212059Z 2121/2218 22007KT P6SM -SHRA BKN050 OVC070
      TEMPO 2123/2203 5SM TSRA BKN040CB
     FM220400 26005KT P6SM VCSH SCT012 OVC040
     FM221100 32008KT P6SM BKN020 OVC030
     FM221600 36013KT P6SM SCT040=



000
FTUS44 KMEG 211700
TAFTUP
TAF
KTUP 211729Z 2118/2218 21009KT P6SM BKN120
     FM212300 24006KT P6SM VCSH BKN050 OVC100
     FM220200 23005KT P6SM VCSH BKN050 OVC070
     FM220800 25004KT P6SM -SHRA BKN012 OVC040
     FM221400 32006KT P6SM VCSH SCT020 BKN080=



000
FTUS44 KMEG 211700
TAFJBR
TAF
KJBR 211729Z 2118/2218 23008KT P6SM -SHRA BKN050 OVC070
      TEMPO 2122/2202 5SM TSRA BKN040CB
     FM220500 26006KT P6SM VCSH SCT012 OVC040
     FM220900 33005KT P6SM OVC020
     FM221400 36011KT P6SM BKN040=



000
FTUS44 KMEG 211700
TAFMKL
TAF
KMKL 211729Z 2118/2218 24010KT P6SM BKN070 OVC120
     FM212300 24006KT P6SM -SHRA BKN050 OVC070
      TEMPO 2200/2204 5SM TSRA BKN040CB
     FM220800 26004KT P6SM VCSH BKN020 OVC040
     FM221400 35011KT P6SM BKN030=



000
FTUS44 KMEG 211700
TAFMEM
TAF
KMEM 211729Z 2118/2218 23010KT P6SM VCSH BKN070 OVC090
     FM212200 22007KT P6SM -SHRA BKN050 OVC070
      TEMPO 2123/2203 5SM TSRA BKN040CB
     FM220400 26005KT P6SM VCSH SCT012 OVC040
     FM221100 32008KT P6SM BKN020 OVC030
     FM221600 36013KT P6SM SCT040=



000
FTUS44 KMEG 211400 AAA
TAFMEM
TAF AMD
KMEM 211459Z 2115/2212 22010KT P6SM VCSH BKN070 OVC120
     FM212200 23007KT P6SM -SHRA BKN050 OVC070
      TEMPO 2123/2203 5SM TSRA BKN040CB
     FM220700 26005KT P6SM VCSH SCT012 OVC040=



000
FTUS44 KMEG 211100
TAFMEM
TAF
KMEM 211128Z 2112/2212 20007KT P6SM SCT070 BKN120
     FM211600 22010KT P6SM VCSH BKN070 OVC120
     FM212200 23007KT P6SM -SHRA BKN050 OVC070
      TEMPO 2123/2203 5SM TSRA BKN040CB
     FM220700 26005KT P6SM VCSH SCT012 OVC040=



000
FTUS44 KMEG 211100
TAFTUP
TAF
KTUP 211128Z 2112/2212 22006KT P6SM SCT070 BKN150
     FM211600 20008KT P6SM BKN070 OVC100
     FM212200 24006KT P6SM VCTS BKN050CB OVC100
      TEMPO 2122/2201 -SHRA
     FM220200 23006KT P6SM VCSH BKN050 OVC070
     FM220800 25004KT 6SM -SHRA SCT012 OVC040=



000
FTUS44 KMEG 211100
TAFJBR
TAF
KJBR 211128Z 2112/2212 21006KT P6SM VCSH BKN070 OVC120
     FM211600 23010KT P6SM VCSH BKN050 OVC070
     FM212100 23008KT 6SM -SHRA BKN050 OVC070
      TEMPO 2122/2202 5SM TSRA BKN040CB
     FM220500 26006KT P6SM VCSH SCT012 OVC040=



000
FTUS44 KMEG 211100
TAFMKL
TAF
KMKL 211128Z 2112/2212 21006KT P6SM SCT070 BKN120
     FM211800 23010KT P6SM VCSH BKN070 OVC120
     FM212300 24006KT P6SM -SHRA BKN050 OVC070
      TEMPO 2200/2204 5SM TSRA BKN040CB
     FM220800 26004KT 6SM BR VCSH SCT012 OVC040=



000
FTUS44 KMEG 210800 AAA
TAFMEM
TAF AMD
KMEM 210859Z 2109/2206 18007KT P6SM SCT070 BKN120
     FM211800 17008KT P6SM VCSH BKN050 OVC100
     FM220000 23008KT 6SM -TSRA BKN050CB OVC100
     FM220300 25006KT P6SM -SHRA VCTS BKN050CB OVC100=



000
FTUS44 KMEG 210500
TAFMEM
TAF
KMEM 210524Z 2106/2206 19004KT P6SM BKN250
     FM210900 18005KT P6SM SCT050 BKN150
     FM211800 17008KT P6SM VCSH BKN050 OVC100
     FM220000 23008KT 6SM -TSRA BKN050CB OVC100
     FM220300 25006KT P6SM -SHRA VCTS BKN050CB OVC100=



000
FTUS44 KMEG 210500
TAFMKL
TAF
KMKL 210524Z 2106/2206 19005KT P6SM BKN200
     FM211000 19003KT P6SM SCT050 BKN150
     FM212200 24009KT P6SM VCSH BKN050 OVC100
     FM220200 24005KT P6SM -TSRA BKN050CB OVC100=



000
FTUS44 KMEG 210500
TAFJBR
TAF
KJBR 210524Z 2106/2206 21006KT P6SM BKN200
     FM210900 22004KT P6SM SCT050 BKN150
     FM211500 20005KT P6SM VCSH BKN050 OVC100
     FM212000 23011KT 5SM -TSRA BKN040CB OVC100
     FM220200 23005KT P6SM VCTS BKN050CB OVC100=



000
FTUS44 KMEG 210500
TAFTUP
TAF
KTUP 210524Z 2106/2206 19003KT P6SM BKN200
     FM211100 19003KT P6SM SCT050 BKN150
     FM211500 20007KT P6SM BKN050
     FM220000 24005KT P6SM VCSH BKN050 OVC100
     FM220300 21005KT P6SM -TSRA BKN050CB OVC100=



    US Dept of Commerce
    National Oceanic and Atmospheric Administration
    National Weather Service
    1325 East West Highway
    Silver Spring, MD 20910
    Page Author: NWS Internet Services Team
Disclaimer
Information Quality
Credits
Glossary
Privacy Policy
Freedom of Information Act (FOIA)
About Us
Career Opportunities